Wildwood, Texas
Current Conditions -  °F | °C
As of 8:15 AM on Thursday 29 Jan 2015 (Local Time) from KJAS Reporting Station
Moderate Fog Moderate Fog  
Wind Chill: 56°   Ceiling: 100
Heat Index: 56°   Visibility: 0.25mi
Dew Point: 55°   Wind: 0mph
Humidity: 98%   Direction: NA
Pressure: 30.25"   Gusts: NA
Location:  30.5343°N, 94.442°W
Report Text: KJAS 291415Z AUTO 00000KT 1/4SM FG OVC001 13/13 A3025 RMK AO2 T01330130
Loading
Personal Weather Stations






























Interactive Weather Map New forecast layout! Learn more

10-Day Weather Forecast

Advertisements
Track Severe Weather on mobile